createdAt,value
2019-04-06T00:01:12.098Z,12.18
2019-04-06T00:02:20.331Z,12.21
2019-04-06T00:03:24.535Z,12.23
2019-04-06T00:04:28.777Z,12.25
2019-04-06T00:05:33.022Z,12.25
2019-04-06T00:06:37.212Z,12.27
2019-04-06T00:07:41.454Z,12.27
2019-04-06T00:08:45.726Z,12.30
2019-04-06T00:09:49.903Z,12.29
2019-04-06T00:10:55.227Z,12.29
2019-04-06T00:12:01.123Z,12.31
2019-04-06T00:13:06.950Z,12.31
2019-04-06T00:14:11.981Z,12.33
2019-04-06T00:15:16.149Z,12.34
2019-04-06T00:16:20.326Z,12.33
2019-04-06T00:17:24.641Z,12.33
2019-04-06T00:18:28.820Z,12.31
2019-04-06T00:19:33.122Z,12.34
2019-04-06T00:20:37.296Z,12.33
2019-04-06T00:21:41.587Z,12.33
2019-04-06T00:22:45.731Z,12.31
2019-04-06T00:23:49.978Z,12.31
2019-04-06T00:24:55.261Z,12.31
2019-04-06T00:25:59.433Z,12.29
2019-04-06T00:27:04.348Z,12.29
2019-04-06T00:28:08.474Z,12.31
2019-04-06T00:29:12.906Z,12.31
2019-04-06T00:30:18.353Z,12.26
2019-04-06T00:31:26.908Z,12.24
2019-04-06T00:32:32.721Z,12.23
2019-04-06T00:33:37.033Z,12.23
2019-04-06T00:34:41.205Z,12.24
2019-04-06T00:35:46.266Z,12.23
2019-04-06T00:36:50.441Z,12.23
2019-04-06T00:37:54.614Z,12.20
2019-04-06T00:38:58.790Z,12.16
2019-04-06T00:40:02.972Z,12.16
2019-04-06T00:41:07.199Z,12.15
2019-04-06T00:42:11.457Z,12.17
2019-04-06T00:43:15.803Z,12.18
2019-04-06T00:44:20.031Z,12.17
2019-04-06T00:45:24.277Z,12.17
2019-04-06T00:46:29.451Z,12.16
2019-04-06T00:47:36.654Z,12.15
2019-04-06T00:48:40.840Z,12.13
2019-04-06T00:49:45.357Z,12.14
2019-04-06T00:50:49.531Z,12.10
2019-04-06T00:51:53.930Z,12.11
2019-04-06T00:52:59.078Z,12.08
2019-04-06T00:54:03.257Z,12.07
2019-04-06T00:55:07.430Z,12.01
2019-04-06T00:56:12.583Z,12.06
2019-04-06T00:57:16.807Z,12.01
2019-04-06T00:58:20.981Z,12.00
2019-04-06T00:59:25.233Z,11.99
2019-04-06T01:00:29.403Z,11.99
2019-04-06T01:01:33.578Z,11.95
2019-04-06T01:02:37.790Z,11.96
2019-04-06T01:03:41.972Z,11.93
2019-04-06T01:04:46.147Z,11.92
2019-04-06T01:05:50.326Z,11.91
2019-04-06T01:06:54.673Z,11.89
2019-04-06T01:07:58.881Z,11.87
2019-04-06T01:09:03.496Z,11.76
2019-04-06T01:10:08.475Z,11.73
2019-04-06T01:11:12.629Z,11.64
2019-04-06T01:12:16.861Z,11.63
2019-04-06T01:13:21.137Z,11.62
2019-04-06T01:14:25.290Z,11.57
2019-04-06T01:15:29.560Z,11.56
2019-04-06T01:16:36.436Z,11.55
2019-04-06T01:17:40.610Z,11.55
2019-04-06T01:18:44.876Z,11.55
2019-04-06T01:19:49.044Z,11.54
2019-04-06T01:20:53.368Z,11.54
2019-04-06T01:21:57.470Z,11.54
2019-04-06T01:23:01.740Z,11.55
2019-04-06T01:24:05.954Z,11.55
2019-04-06T01:25:10.204Z,11.56
2019-04-06T01:26:14.378Z,11.56
2019-04-06T01:27:18.666Z,11.54
2019-04-06T01:28:22.842Z,11.54
2019-04-06T01:29:27.013Z,11.53
2019-04-06T01:30:31.187Z,11.54
2019-04-06T01:31:35.369Z,11.53
2019-04-06T01:32:39.585Z,11.52
2019-04-06T01:33:43.766Z,11.53
2019-04-06T01:34:48.118Z,11.53
2019-04-06T01:35:52.361Z,11.46
2019-04-06T01:36:56.608Z,11.54
2019-04-06T01:38:00.822Z,11.53
2019-04-06T01:39:05.766Z,11.54
2019-04-06T01:40:09.960Z,11.54
2019-04-06T01:41:14.132Z,11.53
2019-04-06T01:42:18.633Z,11.51
2019-04-06T01:43:22.848Z,11.50
2019-04-06T01:44:27.035Z,11.50
2019-04-06T01:45:32.195Z,11.49
2019-04-06T01:46:36.433Z,11.49
2019-04-06T01:47:40.658Z,11.47
2019-04-06T01:48:44.900Z,11.45
2019-04-06T01:49:49.097Z,11.40
2019-04-06T01:50:53.340Z,11.40
2019-04-06T01:51:57.526Z,11.45
2019-04-06T01:53:01.702Z,11.46
2019-04-06T01:54:06.437Z,11.47
2019-04-06T01:55:10.669Z,11.47
2019-04-06T01:56:18.893Z,11.49
2019-04-06T01:57:20.779Z,11.50
2019-04-06T01:58:24.950Z,11.51
2019-04-06T01:59:29.170Z,11.52
2019-04-06T02:00:33.346Z,11.48
2019-04-06T02:01:51.099Z,11.48
2019-04-06T02:02:56.816Z,11.50
2019-04-06T02:04:00.997Z,11.50
2019-04-06T02:05:06.659Z,11.50
2019-04-06T02:06:10.970Z,11.49
2019-04-06T02:07:15.458Z,11.49
2019-04-06T02:08:19.634Z,11.49
2019-04-06T02:09:23.908Z,11.49
2019-04-06T02:10:28.790Z,11.49
2019-04-06T02:11:33.072Z,11.49
2019-04-06T02:12:37.294Z,11.51
2019-04-06T02:13:41.422Z,11.51
2019-04-06T02:14:45.737Z,11.43
2019-04-06T02:15:49.918Z,11.43
2019-04-06T02:16:54.147Z,11.43
2019-04-06T02:17:58.344Z,11.44
2019-04-06T02:19:02.500Z,11.45
2019-04-06T02:20:07.045Z,11.46
2019-04-06T02:21:11.221Z,11.46
2019-04-06T02:22:15.434Z,11.47
2019-04-06T02:23:19.631Z,11.47
2019-04-06T02:24:23.814Z,11.48
2019-04-06T02:25:27.990Z,11.48
2019-04-06T02:26:32.244Z,11.48
2019-04-06T02:27:36.452Z,11.49
2019-04-06T02:28:40.747Z,11.48
2019-04-06T02:29:45.297Z,11.49
2019-04-06T02:31:06.516Z,11.47
2019-04-06T02:32:18.616Z,11.47
2019-04-06T02:33:42.955Z,11.44
2019-04-06T02:34:48.770Z,11.38
2019-04-06T02:35:54.588Z,11.38
2019-04-06T02:37:06.274Z,11.37
2019-04-06T02:38:12.133Z,11.33
2019-04-06T02:39:20.809Z,11.25
2019-04-06T02:40:26.798Z,11.32
2019-04-06T02:41:47.759Z,11.32
2019-04-06T02:42:53.978Z,11.33
2019-04-06T02:43:58.157Z,11.34
2019-04-06T02:45:02.578Z,11.33
2019-04-06T02:46:06.830Z,11.34
2019-04-06T02:47:11.006Z,11.34
2019-04-06T02:48:15.189Z,11.36
2019-04-06T02:49:19.375Z,11.36
2019-04-06T02:50:23.637Z,11.37
2019-04-06T02:51:27.839Z,11.34
2019-04-06T02:52:32.027Z,11.31
2019-04-06T02:53:36.317Z,11.33
2019-04-06T02:54:40.508Z,11.35
2019-04-06T02:55:44.955Z,11.36
2019-04-06T02:56:49.154Z,11.38
2019-04-06T02:57:55.464Z,11.40
2019-04-06T02:58:59.842Z,11.40
2019-04-06T03:00:07.327Z,11.41
2019-04-06T03:01:11.513Z,11.42
2019-04-06T03:02:15.677Z,11.41
2019-04-06T03:03:19.861Z,11.42
2019-04-06T03:04:24.166Z,11.42
2019-04-06T03:05:28.368Z,11.42
2019-04-06T03:06:32.626Z,11.43
2019-04-06T03:07:36.812Z,11.42
2019-04-06T03:08:41.054Z,11.43
2019-04-06T03:09:45.271Z,11.41
2019-04-06T03:10:49.460Z,11.40
2019-04-06T03:11:53.996Z,11.39
2019-04-06T03:12:58.536Z,11.38
2019-04-06T03:14:03.154Z,11.39
2019-04-06T03:15:07.366Z,11.39
2019-04-06T03:16:11.751Z,11.40
2019-04-06T03:17:15.868Z,11.41
2019-04-06T03:18:20.043Z,11.40
2019-04-06T03:19:24.428Z,11.39
2019-04-06T03:20:28.672Z,11.39
2019-04-06T03:21:33.907Z,11.39
2019-04-06T03:22:38.079Z,11.35
2019-04-06T03:23:50.597Z,11.35
2019-04-06T03:24:48.162Z,11.35
2019-04-06T03:25:52.336Z,11.36
2019-04-06T03:27:01.920Z,11.37
2019-04-06T03:28:02.474Z,11.35
2019-04-06T03:29:07.109Z,11.34
2019-04-06T03:30:11.767Z,11.33
2019-04-06T03:31:15.957Z,11.34
2019-04-06T03:32:20.586Z,11.32
2019-04-06T03:33:24.776Z,11.32
2019-04-06T03:34:29.263Z,11.31
2019-04-06T03:35:33.477Z,11.30
2019-04-06T03:36:37.662Z,11.31
2019-04-06T03:37:47.699Z,11.29
2019-04-06T03:38:51.942Z,11.28
2019-04-06T03:39:56.121Z,11.22
2019-04-06T03:41:00.320Z,11.21
2019-04-06T03:42:05.002Z,11.21
2019-04-06T03:43:09.251Z,11.21
2019-04-06T03:44:13.420Z,11.20
2019-04-06T03:45:17.677Z,11.16
2019-04-06T03:46:21.846Z,11.14
2019-04-06T03:47:26.134Z,11.12
2019-04-06T03:48:30.304Z,11.11
2019-04-06T03:49:34.526Z,11.11
2019-04-06T03:50:40.016Z,11.09
2019-04-06T03:51:44.281Z,11.05
2019-04-06T03:52:48.525Z,11.05
2019-04-06T03:53:52.667Z,11.05
2019-04-06T03:54:56.842Z,11.04
2019-04-06T03:56:04.098Z,11.02
2019-04-06T03:57:15.844Z,11.01
2019-04-06T03:58:14.264Z,11.00
2019-04-06T03:59:18.433Z,10.99
2019-04-06T04:00:22.694Z,10.97
2019-04-06T04:01:27.207Z,10.95
2019-04-06T04:02:32.463Z,10.90
2019-04-06T04:03:36.989Z,10.90
2019-04-06T04:04:42.252Z,10.88
2019-04-06T04:05:48.175Z,10.87
2019-04-06T04:06:52.315Z,10.85
2019-04-06T04:07:56.506Z,10.83
2019-04-06T04:09:00.812Z,10.83
2019-04-06T04:10:07.099Z,10.83
2019-04-06T04:11:11.754Z,10.81
2019-04-06T04:12:15.943Z,10.82
2019-04-06T04:13:20.134Z,10.83
2019-04-06T04:14:24.411Z,10.84
2019-04-06T04:15:28.587Z,10.81
2019-04-06T04:16:34.406Z,10.80
2019-04-06T04:17:38.816Z,10.79
2019-04-06T04:18:42.998Z,10.81
2019-04-06T04:19:47.458Z,10.79
2019-04-06T04:20:51.997Z,10.77
2019-04-06T04:21:57.252Z,10.73
2019-04-06T04:23:01.491Z,10.75
2019-04-06T04:24:05.670Z,10.68
2019-04-06T04:25:09.925Z,10.67
2019-04-06T04:26:14.443Z,10.67
2019-04-06T04:27:28.358Z,10.69
2019-04-06T04:28:24.451Z,10.69
2019-04-06T04:29:28.632Z,10.69
2019-04-06T04:30:34.633Z,10.69
2019-04-06T04:31:40.364Z,10.70
2019-04-06T04:32:44.652Z,10.65
2019-04-06T04:33:48.788Z,10.64
2019-04-06T04:34:54.769Z,10.63
2019-04-06T04:35:58.992Z,10.52
2019-04-06T04:37:03.327Z,10.49
2019-04-06T04:38:07.512Z,10.48
2019-04-06T04:39:11.694Z,10.48
2019-04-06T04:40:15.935Z,10.45
2019-04-06T04:41:20.101Z,10.43
2019-04-06T04:42:24.368Z,10.41
2019-04-06T04:43:29.782Z,10.35
2019-04-06T04:44:34.198Z,10.33
2019-04-06T04:45:38.530Z,10.30
2019-04-06T04:46:43.071Z,10.30
2019-04-06T04:47:49.998Z,10.29
2019-04-06T04:48:53.406Z,10.27
2019-04-06T04:49:57.628Z,10.25
2019-04-06T04:51:01.877Z,10.27
2019-04-06T04:52:06.129Z,10.27
2019-04-06T04:53:10.439Z,10.25
2019-04-06T04:54:14.671Z,10.25
2019-04-06T04:55:19.090Z,10.25
2019-04-06T04:56:23.327Z,10.22
2019-04-06T04:57:39.247Z,10.19
2019-04-06T04:58:33.450Z,10.19
2019-04-06T04:59:37.634Z,10.19
2019-04-06T05:00:41.839Z,10.18
2019-04-06T05:01:46.140Z,10.16
2019-04-06T05:02:50.331Z,10.16
2019-04-06T05:03:54.563Z,10.14
2019-04-06T05:04:59.134Z,10.14
2019-04-06T05:06:03.342Z,10.15
2019-04-06T05:07:07.540Z,10.11
2019-04-06T05:08:11.717Z,10.11
2019-04-06T05:09:16.046Z,10.11
2019-04-06T05:10:20.188Z,10.09
2019-04-06T05:11:24.841Z,10.07
2019-04-06T05:12:29.151Z,10.07
2019-04-06T05:13:33.446Z,10.06
2019-04-06T05:14:56.340Z,10.03
2019-04-06T05:16:09.081Z,10.02
2019-04-06T05:17:13.235Z,10.00
2019-04-06T05:18:17.708Z,9.97
2019-04-06T05:19:21.879Z,9.97
2019-04-06T05:20:26.116Z,9.97
2019-04-06T05:21:30.361Z,9.97
2019-04-06T05:22:34.553Z,9.97
2019-04-06T05:23:38.930Z,9.98
2019-04-06T05:24:43.158Z,10.00
2019-04-06T05:25:47.501Z,10.00
2019-04-06T05:26:51.682Z,9.98
2019-04-06T05:27:55.853Z,9.99
2019-04-06T05:29:00.188Z,9.98
2019-04-06T05:30:07.752Z,9.99
2019-04-06T05:31:11.926Z,9.96
2019-04-06T05:32:16.091Z,9.92
2019-04-06T05:33:20.442Z,9.88
2019-04-06T05:34:24.743Z,9.89
2019-04-06T05:35:28.939Z,9.89
2019-04-06T05:36:33.080Z,9.89
2019-04-06T05:37:38.025Z,9.87
2019-04-06T05:38:42.249Z,9.86
2019-04-06T05:39:46.445Z,9.86
2019-04-06T05:40:50.652Z,9.86
2019-04-06T05:41:55.197Z,9.87
2019-04-06T05:42:59.413Z,9.89
2019-04-06T05:44:04.446Z,9.91
2019-04-06T05:45:08.608Z,9.90
2019-04-06T05:46:12.866Z,9.90
2019-04-06T05:47:17.241Z,9.91
2019-04-06T05:48:21.787Z,9.92
2019-04-06T05:49:26.002Z,9.90
2019-04-06T05:50:30.170Z,9.90
2019-04-06T05:51:34.414Z,9.89
2019-04-06T05:52:38.586Z,9.88
2019-04-06T05:53:42.756Z,9.88
2019-04-06T05:54:46.990Z,9.88
2019-04-06T05:55:51.279Z,9.88
2019-04-06T05:56:55.605Z,9.88
2019-04-06T05:58:04.187Z,9.86
2019-04-06T05:59:05.980Z,9.88
2019-04-06T06:00:11.573Z,9.87
2019-04-06T06:01:15.881Z,9.88
2019-04-06T06:02:20.110Z,9.88
2019-04-06T06:03:24.267Z,9.91
2019-04-06T06:04:28.547Z,9.93
2019-04-06T06:05:32.759Z,9.95
2019-04-06T06:06:39.948Z,9.95
2019-04-06T06:07:44.357Z,9.96
2019-04-06T06:08:49.765Z,9.99
2019-04-06T06:09:53.996Z,9.99
2019-04-06T06:10:58.918Z,10.02
2019-04-06T06:12:03.110Z,10.06
2019-04-06T06:13:07.348Z,10.07
2019-04-06T06:14:11.568Z,10.10
2019-04-06T06:15:18.785Z,10.10
2019-04-06T06:16:23.098Z,10.13
2019-04-06T06:17:27.313Z,10.14
2019-04-06T06:18:31.453Z,10.17
2019-04-06T06:19:35.696Z,10.18
2019-04-06T06:20:41.487Z,10.21
2019-04-06T06:21:45.891Z,10.21
2019-04-06T06:22:50.232Z,9.95
2019-04-06T06:23:54.480Z,10.28
2019-04-06T06:24:58.809Z,10.28
2019-04-06T06:26:03.000Z,10.31
2019-04-06T06:27:07.377Z,10.34
2019-04-06T06:28:15.081Z,10.35
2019-04-06T06:29:17.883Z,10.35
2019-04-06T06:30:22.559Z,10.33
2019-04-06T06:31:26.738Z,10.33
2019-04-06T06:32:31.443Z,10.32
2019-04-06T06:33:35.854Z,10.25
2019-04-06T06:34:40.026Z,10.25
2019-04-06T06:35:44.278Z,10.28
2019-04-06T06:36:48.524Z,10.31
2019-04-06T06:37:52.902Z,10.35
2019-04-06T06:38:57.198Z,10.41
2019-04-06T06:40:03.413Z,10.45
2019-04-06T06:41:07.763Z,10.50
2019-04-06T06:42:11.941Z,10.55
2019-04-06T06:43:16.184Z,10.60
2019-04-06T06:44:20.473Z,10.64
2019-04-06T06:45:24.736Z,10.69
2019-04-06T06:46:29.033Z,10.73
2019-04-06T06:47:33.219Z,10.77
2019-04-06T06:48:37.664Z,10.83
2019-04-06T06:49:42.079Z,10.87
2019-04-06T06:50:47.407Z,10.91
2019-04-06T06:51:51.753Z,10.98
2019-04-06T06:52:55.931Z,11.01
2019-04-06T06:54:00.178Z,11.07
2019-04-06T06:55:05.794Z,11.13
2019-04-06T06:56:10.070Z,11.16
2019-04-06T06:57:14.484Z,11.19
2019-04-06T06:58:25.054Z,11.24
2019-04-06T06:59:24.590Z,11.30
2019-04-06T07:00:29.238Z,11.33
2019-04-06T07:01:33.478Z,11.37
2019-04-06T07:02:39.366Z,11.43
2019-04-06T07:03:43.703Z,11.47
2019-04-06T07:04:47.875Z,11.50
2019-04-06T07:05:52.391Z,11.58
2019-04-06T07:06:56.590Z,11.63
2019-04-06T07:08:00.852Z,11.69
2019-04-06T07:09:06.900Z,11.74
2019-04-06T07:10:11.106Z,11.79
2019-04-06T07:11:15.264Z,11.83
2019-04-06T07:12:19.526Z,11.88
2019-04-06T07:13:23.714Z,11.95
2019-04-06T07:14:27.899Z,11.99
2019-04-06T07:15:32.082Z,12.04
2019-04-06T07:16:36.259Z,12.09
2019-04-06T07:17:40.457Z,12.15
2019-04-06T07:18:44.714Z,12.22
2019-04-06T07:19:48.973Z,12.25
2019-04-06T07:20:53.260Z,12.30
2019-04-06T07:21:57.441Z,12.34
2019-04-06T07:23:01.652Z,12.39
2019-04-06T07:24:05.995Z,12.37
2019-04-06T07:25:10.180Z,12.49
2019-04-06T07:26:14.341Z,12.53
2019-04-06T07:27:19.923Z,12.59
2019-04-06T07:28:25.471Z,12.64
2019-04-06T07:29:31.257Z,12.70
2019-04-06T07:30:35.517Z,12.74
2019-04-06T07:31:39.765Z,12.79
2019-04-06T07:32:44.116Z,12.84
2019-04-06T07:33:49.477Z,12.87
2019-04-06T07:34:53.660Z,12.93
2019-04-06T07:35:58.178Z,12.98
2019-04-06T07:37:02.358Z,13.03
2019-04-06T07:38:06.675Z,13.07
2019-04-06T07:39:11.036Z,13.10
2019-04-06T07:40:15.834Z,13.16
2019-04-06T07:41:20.638Z,13.19
2019-04-06T07:42:24.751Z,13.24
2019-04-06T07:43:30.681Z,13.29
2019-04-06T07:44:34.856Z,13.35
2019-04-06T07:45:39.106Z,13.35
2019-04-06T07:46:43.350Z,13.42
2019-04-06T07:47:47.532Z,13.47
2019-04-06T07:48:53.370Z,13.52
2019-04-06T07:49:58.966Z,13.57
2019-04-06T07:51:04.221Z,13.61
2019-04-06T07:52:08.536Z,13.65
2019-04-06T07:53:14.416Z,13.69
2019-04-06T07:54:21.885Z,13.74
2019-04-06T07:55:26.262Z,13.78
2019-04-06T07:56:30.517Z,13.83
2019-04-06T07:57:34.958Z,13.88
2019-04-06T07:58:47.815Z,13.92
2019-04-06T07:59:45.229Z,13.95
2019-04-06T08:00:49.747Z,14.00
2019-04-06T08:01:54.012Z,14.03
2019-04-06T08:02:58.458Z,14.06
2019-04-06T08:04:03.910Z,14.09
2019-04-06T08:05:08.203Z,14.11
2019-04-06T08:06:12.633Z,14.12
2019-04-06T08:07:16.822Z,14.15
2019-04-06T08:08:21.332Z,14.21
2019-04-06T08:09:25.507Z,14.26
2019-04-06T08:10:29.784Z,14.32
2019-04-06T08:11:34.507Z,14.38
2019-04-06T08:12:38.662Z,14.43
2019-04-06T08:13:42.916Z,14.48
2019-04-06T08:14:47.250Z,14.55
2019-04-06T08:15:53.235Z,14.60
2019-04-06T08:16:57.816Z,14.65
2019-04-06T08:18:02.069Z,14.69
2019-04-06T08:19:06.315Z,14.72
2019-04-06T08:20:10.495Z,14.79
2019-04-06T08:21:14.970Z,14.82
2019-04-06T08:22:21.271Z,14.85
2019-04-06T08:23:25.438Z,14.90
2019-04-06T08:24:29.614Z,14.95
2019-04-06T08:25:34.044Z,15.01
2019-04-06T08:26:38.211Z,15.07
2019-04-06T08:27:42.443Z,15.11
2019-04-06T08:28:46.672Z,15.17
2019-04-06T08:29:50.844Z,15.23
2019-04-06T08:30:55.021Z,15.29
2019-04-06T08:31:59.268Z,15.34
2019-04-06T08:33:04.584Z,15.42
2019-04-06T08:34:08.751Z,15.48
2019-04-06T08:35:23.980Z,15.53
2019-04-06T08:36:19.069Z,15.57
2019-04-06T08:37:23.404Z,15.64
2019-04-06T08:38:27.678Z,15.69
2019-04-06T08:39:32.973Z,15.76
2019-04-06T08:40:37.222Z,15.82
2019-04-06T08:41:41.558Z,15.86
2019-04-06T08:42:45.739Z,15.89
2019-04-06T08:43:50.021Z,15.94
2019-04-06T08:44:54.250Z,15.98
2019-04-06T08:45:58.406Z,16.03
2019-04-06T08:47:02.723Z,16.04
2019-04-06T08:48:06.994Z,16.08
2019-04-06T08:49:11.202Z,16.12
2019-04-06T08:50:15.478Z,16.17
2019-04-06T08:51:20.005Z,16.23
2019-04-06T08:52:24.203Z,16.32
2019-04-06T08:53:28.704Z,16.38
2019-04-06T08:54:33.088Z,16.40
2019-04-06T08:55:37.300Z,16.46
2019-04-06T08:56:41.547Z,16.53
2019-04-06T08:57:45.862Z,16.59
2019-04-06T08:58:50.251Z,16.68
2019-04-06T08:59:54.734Z,16.75
2019-04-06T09:00:59.059Z,16.84
2019-04-06T09:02:04.581Z,16.95
2019-04-06T09:03:08.789Z,16.95
2019-04-06T09:04:12.971Z,17.05
2019-04-06T09:05:17.198Z,17.12
2019-04-06T09:06:21.515Z,17.18
2019-04-06T09:07:25.899Z,17.21
2019-04-06T09:08:30.134Z,17.27
2019-04-06T09:09:34.380Z,17.33
2019-04-06T09:10:38.553Z,17.39
2019-04-06T09:11:42.801Z,17.43
2019-04-06T09:12:47.051Z,17.45
2019-04-06T09:13:51.410Z,17.45
2019-04-06T09:14:55.659Z,17.47
2019-04-06T09:15:59.842Z,17.49
2019-04-06T09:17:05.059Z,17.55
2019-04-06T09:18:09.286Z,17.60
2019-04-06T09:19:14.256Z,17.69
2019-04-06T09:20:20.296Z,17.72
2019-04-06T09:21:24.625Z,17.83
2019-04-06T09:22:28.798Z,17.92
2019-04-06T09:23:34.794Z,17.99
2019-04-06T09:24:39.239Z,18.08
2019-04-06T09:25:43.620Z,18.18
2019-04-06T09:26:48.573Z,18.23
2019-04-06T09:27:53.360Z,18.35
2019-04-06T09:28:59.540Z,18.43
2019-04-06T09:30:05.225Z,18.51
2019-04-06T09:31:09.723Z,18.59
2019-04-06T09:32:13.879Z,18.71
2019-04-06T09:33:18.583Z,18.83
2019-04-06T09:34:22.786Z,18.78
2019-04-06T09:35:26.989Z,18.92
2019-04-06T09:36:31.301Z,18.99
2019-04-06T09:37:35.630Z,19.02
2019-04-06T09:38:41.000Z,19.07
2019-04-06T09:39:45.202Z,19.23
2019-04-06T09:40:50.019Z,19.23
2019-04-06T09:41:56.436Z,19.28
2019-04-06T09:43:01.089Z,19.36
2019-04-06T09:44:07.004Z,19.46
2019-04-06T09:45:12.879Z,19.55
2019-04-06T09:46:25.035Z,19.61
2019-04-06T09:47:33.760Z,19.62
2019-04-06T09:48:48.408Z,19.63
2019-04-06T09:50:00.347Z,19.61
2019-04-06T09:51:22.298Z,19.59
2019-04-06T09:52:34.020Z,19.64
2019-04-06T09:54:05.171Z,19.71
2019-04-06T09:55:09.471Z,19.87
2019-04-06T09:56:15.234Z,19.94
2019-04-06T09:57:21.050Z,20.03
2019-04-06T09:58:32.319Z,20.05
2019-04-06T09:59:38.251Z,20.06
2019-04-06T10:00:49.834Z,19.90
2019-04-06T10:02:04.856Z,19.99
2019-04-06T10:03:16.660Z,20.06
2019-04-06T10:04:31.114Z,19.98
2019-04-06T10:05:37.282Z,20.05
2019-04-06T10:06:59.164Z,20.11
2019-04-06T10:08:21.277Z,20.22
2019-04-06T10:09:32.945Z,20.35
2019-04-06T10:10:39.891Z,20.37
2019-04-06T10:11:48.346Z,20.44
2019-04-06T10:13:09.105Z,20.42
2019-04-06T10:14:20.771Z,20.53
2019-04-06T10:15:34.174Z,20.60
2019-04-06T10:16:45.792Z,20.71
2019-04-06T10:18:09.565Z,20.85
2019-04-06T10:19:31.509Z,20.91
2019-04-06T10:20:53.149Z,20.95
2019-04-06T10:22:02.363Z,20.90
2019-04-06T10:23:19.928Z,20.95
2019-04-06T10:24:31.725Z,21.04
2019-04-06T10:25:40.617Z,21.18
2019-04-06T10:27:02.344Z,21.33
2019-04-06T10:28:17.640Z,21.42
2019-04-06T10:29:47.959Z,21.41
2019-04-06T10:31:04.159Z,21.51
2019-04-06T10:32:25.381Z,21.52
2019-04-06T10:33:31.197Z,21.69
2019-04-06T10:34:43.074Z,21.84
2019-04-06T10:36:07.511Z,21.95
2019-04-06T10:37:25.668Z,22.08
2019-04-06T10:38:40.572Z,22.16
2019-04-06T10:39:49.141Z,22.22
2019-04-06T10:41:10.259Z,22.32
2019-04-06T10:42:32.641Z,22.36
2019-04-06T10:43:38.515Z,22.48
2019-04-06T10:45:00.498Z,22.55
2019-04-06T10:46:21.394Z,22.58
2019-04-06T10:47:32.851Z,22.69
2019-04-06T10:48:55.137Z,22.75
2019-04-06T10:50:01.488Z,22.70
2019-04-06T10:51:10.340Z,22.67
2019-04-06T10:52:32.457Z,22.63
2019-04-06T10:53:54.245Z,22.64
2019-04-06T10:55:00.062Z,22.69
2019-04-06T10:56:25.285Z,22.66
2019-04-06T10:57:31.394Z,22.69
2019-04-06T10:58:53.716Z,22.65
2019-04-06T11:00:03.449Z,22.57
2019-04-06T11:01:15.383Z,22.65
2019-04-06T11:02:37.457Z,22.75
2019-04-06T11:03:43.302Z,22.85
2019-04-06T11:04:52.616Z,22.97
2019-04-06T11:06:04.666Z,22.96
2019-04-06T11:07:27.006Z,23.19
2019-04-06T11:08:38.774Z,23.31
2019-04-06T11:09:44.664Z,23.35
2019-04-06T11:10:51.109Z,23.42
2019-04-06T11:12:09.197Z,23.52
2019-04-06T11:13:20.989Z,23.52
2019-04-06T11:14:26.877Z,23.52
2019-04-06T11:15:32.962Z,23.65
2019-04-06T11:16:41.851Z,23.71
2019-04-06T11:17:47.580Z,23.71
2019-04-06T11:18:53.396Z,23.82
2019-04-06T11:19:59.421Z,23.88
2019-04-06T11:21:22.521Z,23.91
2019-04-06T11:22:28.516Z,23.80
2019-04-06T11:23:46.401Z,23.20
2019-04-06T11:24:52.721Z,23.17
2019-04-06T11:26:12.973Z,23.05
2019-04-06T11:27:18.837Z,22.95
2019-04-06T11:28:27.444Z,22.74
2019-04-06T11:29:36.091Z,22.67
2019-04-06T11:30:59.017Z,22.56
2019-04-06T11:32:05.858Z,22.39
2019-04-06T11:33:17.482Z,22.35
2019-04-06T11:34:23.441Z,22.21
2019-04-06T11:35:41.190Z,21.97
2019-04-06T11:36:47.036Z,21.91
2019-04-06T11:38:09.002Z,21.89
2019-04-06T11:39:17.896Z,21.82
2019-04-06T11:40:39.919Z,21.71
2019-04-06T11:41:45.868Z,21.67
2019-04-06T11:42:57.418Z,21.64
2019-04-06T11:44:03.311Z,21.61
2019-04-06T11:45:15.265Z,21.59
2019-04-06T11:46:30.257Z,21.60
2019-04-06T11:47:36.419Z,21.58
2019-04-06T11:48:55.420Z,21.56
2019-04-06T11:50:01.335Z,21.63
2019-04-06T11:51:24.843Z,21.63
2019-04-06T11:52:46.781Z,21.63
2019-04-06T11:54:09.177Z,21.62
2019-04-06T11:55:31.278Z,21.66
2019-04-06T11:56:53.464Z,21.59
2019-04-06T11:58:17.577Z,21.68
2019-04-06T11:59:39.237Z,21.75
2019-04-06T12:01:01.594Z,21.78
2019-04-06T12:02:11.430Z,21.71
2019-04-06T12:03:19.850Z,21.68
2019-04-06T12:04:31.689Z,21.66
2019-04-06T12:05:52.832Z,21.71
2019-04-06T12:07:10.619Z,21.75
2019-04-06T12:08:19.458Z,21.73
2019-04-06T12:09:28.247Z,21.70
2019-04-06T12:10:52.531Z,21.65
2019-04-06T12:12:01.288Z,21.61
2019-04-06T12:13:13.129Z,21.53
2019-04-06T12:14:31.709Z,21.45
2019-04-06T12:15:55.487Z,21.41
2019-04-06T12:17:17.583Z,21.21
2019-04-06T12:18:26.487Z,21.08
2019-04-06T12:19:38.305Z,21.06
2019-04-06T12:21:00.728Z,21.05
2019-04-06T12:22:12.050Z,21.08
2019-04-06T12:23:34.776Z,21.07
2019-04-06T12:24:46.506Z,21.07
2019-04-06T12:26:01.604Z,21.06
2019-04-06T12:27:13.534Z,21.04
2019-04-06T12:28:22.451Z,21.03
2019-04-06T12:29:44.775Z,20.94
2019-04-06T12:30:53.761Z,20.97
2019-04-06T12:32:08.406Z,20.96
2019-04-06T12:33:14.344Z,20.93
2019-04-06T12:34:38.322Z,20.93
2019-04-06T12:35:53.238Z,20.92
2019-04-06T12:37:14.889Z,20.92
2019-04-06T12:38:20.775Z,20.90
2019-04-06T12:39:32.659Z,20.82
2019-04-06T12:40:54.875Z,20.75
2019-04-06T12:42:01.811Z,20.76
2019-04-06T12:43:25.869Z,20.69
2019-04-06T12:44:48.604Z,20.63
2019-04-06T12:45:57.386Z,20.61
2019-04-06T12:47:06.588Z,20.61
2019-04-06T12:48:21.551Z,20.61
2019-04-06T12:49:32.532Z,20.63
2019-04-06T12:50:55.116Z,20.55
2019-04-06T12:52:01.032Z,20.55
2019-04-06T12:53:07.073Z,20.57
2019-04-06T12:54:12.941Z,20.47
2019-04-06T12:55:21.483Z,20.50
2019-04-06T12:56:30.091Z,20.48
2019-04-06T12:57:38.594Z,20.52
2019-04-06T12:58:53.376Z,20.52
2019-04-06T13:00:05.435Z,20.50
2019-04-06T13:01:14.221Z,20.53
2019-04-06T13:02:23.162Z,20.55
2019-04-06T13:03:31.648Z,20.51
2019-04-06T13:04:46.853Z,20.49
2019-04-06T13:05:55.554Z,20.50
2019-04-06T13:07:10.696Z,20.53
2019-04-06T13:08:29.325Z,20.49
2019-04-06T13:09:49.984Z,20.38
2019-04-06T13:11:08.020Z,20.42
2019-04-06T13:12:13.917Z,20.45
2019-04-06T13:13:38.153Z,20.49
2019-04-06T13:14:47.667Z,20.46
2019-04-06T13:16:02.747Z,20.49
2019-04-06T13:17:14.466Z,20.49
2019-04-06T13:18:25.784Z,20.47
2019-04-06T13:19:31.917Z,20.43
2019-04-06T13:20:38.111Z,20.42
2019-04-06T13:22:00.164Z,20.39
2019-04-06T13:23:09.451Z,20.39
2019-04-06T13:24:31.475Z,20.34
2019-04-06T13:25:37.944Z,20.34
2019-04-06T13:26:46.429Z,20.34
2019-04-06T13:27:52.263Z,20.38
2019-04-06T13:29:15.069Z,20.41
2019-04-06T13:30:23.382Z,20.41
2019-04-06T13:31:45.401Z,20.36
2019-04-06T13:32:51.620Z,20.36
2019-04-06T13:33:57.434Z,20.33
2019-04-06T13:35:03.315Z,20.36
2019-04-06T13:36:18.238Z,20.36
2019-04-06T13:37:41.249Z,20.37
2019-04-06T13:39:03.046Z,20.36
2019-04-06T13:40:12.930Z,20.39
2019-04-06T13:41:35.057Z,20.44
2019-04-06T13:42:56.788Z,20.50
2019-04-06T13:44:06.050Z,20.54
2019-04-06T13:45:27.818Z,20.57
2019-04-06T13:46:39.948Z,20.58
2019-04-06T13:47:45.940Z,20.54
2019-04-06T13:48:57.845Z,20.56
2019-04-06T13:50:15.391Z,20.58
2019-04-06T13:51:36.248Z,20.57
2019-04-06T13:52:42.332Z,20.58
2019-04-06T13:53:48.249Z,20.60
2019-04-06T13:54:54.089Z,20.60
2019-04-06T13:56:02.927Z,20.60
2019-04-06T13:57:08.694Z,20.60
2019-04-06T13:58:20.271Z,20.58
2019-04-06T13:59:42.345Z,20.56
2019-04-06T14:00:51.077Z,20.54
2019-04-06T14:01:57.025Z,20.47
2019-04-06T14:03:12.106Z,20.45
2019-04-06T14:04:33.025Z,20.40
2019-04-06T14:05:39.922Z,20.38
2019-04-06T14:06:57.849Z,20.33
2019-04-06T14:08:21.064Z,20.34
2019-04-06T14:09:42.257Z,20.35
2019-04-06T14:11:00.114Z,20.28
2019-04-06T14:12:12.074Z,20.25
2019-04-06T14:13:32.779Z,20.23
2019-04-06T14:14:38.644Z,20.27
2019-04-06T14:16:00.459Z,20.27
2019-04-06T14:17:06.548Z,20.28
2019-04-06T14:18:18.241Z,20.28
2019-04-06T14:19:33.242Z,20.32
2019-04-06T14:20:57.306Z,20.33
2019-04-06T14:22:03.186Z,20.32
2019-04-06T14:23:11.642Z,20.29
2019-04-06T14:24:17.649Z,20.28
2019-04-06T14:25:23.474Z,20.27
2019-04-06T14:26:32.054Z,20.29
2019-04-06T14:27:40.349Z,20.32
2019-04-06T14:29:04.316Z,20.34
2019-04-06T14:30:26.736Z,20.38
2019-04-06T14:31:48.559Z,20.39